Αρχική σελίδα
METAR-TAF:

METAR-TAF

Αεροδρόμια :

Ντζαμένα, Τσαντ

γεωγραφικό πλάτος: 12-08N, γεωγραφικό μήκος: 015-02E, υψόμετρο: 295 μ

Παρών καιρός

Η αναφορά έγινε 1 ώρα και 13 λεπτά πριν, στις 02:00 UTC
Άνεμος 10 kt από Ν/NA
Θερμοκρασία 23°C
Υγρασία 94%
Πίεση 1008 hPa
Ορατότητα 10 χλμ και άνω
Λίγα νέφη σε ύψος 3300 πόδια

METAR: FTTJ 200200Z 16010KT 9999 FEW033 23/22 Q1008 NOSIG

Χρόνος: 04:13 (03:13 UTC)

Πρόγνωση Καιρού

Η αναφορά έγινε 4 ώρες και 13 λεπτά πριν, στις 23:00 UTC
Η πρόγνωση ισχύει από τις 20 στις 00 UTC έως τις 21 στις 06 UTC
Άνεμος 8 kt από Α
Ορατότητα: 8000 μ
Λίγα νέφη σε ύψος 3000 πόδια
Καθιστάμενος
από 20 στις 06 UTC έως τις 20 στις 08 UTC
Άνεμος 10 kt από ΝΔ
Προσωρινά
από 20 στις 14 UTC έως τις 20 στις 23 UTC
Ορατότητα: 4000 μ
καταιγίδα, βροχή

TAF: FTTJ 192300Z 2000/2106 09008KT 8000 FEW030 BECMG 2006/2008 22010KT TEMPO 2014/2023 4000 TSRA

Μετεωρολογικές αναφορές και προγνώσεις για περισσότερα από 4000 αεροδρόμια (δελτία METAR και TAF).

Οι διαθέσιμοι σταθμοί απεικονίζονται στο χάρτη με κίτρινες και κόκκινες κουκκίδες.

Μετακινήστε το ποντίκι πάνω από τις κουκκίδες για να δείτε το όνομα του σταθμού.

Στη συνέχεια, κάντε κλικ για να δείτε τις μετεωρολογικές αναφορές και τις προγνώσεις καιρού.

Για να αλλάξετε το χάρτη: κάντε κλικ στα πράσινα κουμπιά με τον μαύρο σταυρό για να ζουμάρετε, στο πράσινο κουμπί με την παύλα για να αφαιρέσετε το ζουμ ή στα πράσινα βέλη για να αντιπαραβάλλετε χάρτες.


METAR-TAF: